createdAt,value
2018-05-17T00:00:36.477Z,0
2018-05-17T00:01:46.482Z,0
2018-05-17T00:02:56.490Z,0
2018-05-17T00:04:06.229Z,0
2018-05-17T00:05:15.703Z,0
2018-05-17T00:06:25.715Z,0
2018-05-17T00:07:35.728Z,0
2018-05-17T00:08:45.209Z,0
2018-05-17T00:09:55.231Z,0
2018-05-17T00:11:05.235Z,0
2018-05-17T00:12:14.989Z,0
2018-05-17T00:13:25.007Z,0
2018-05-17T00:14:35.102Z,0
2018-05-17T00:15:45.110Z,0
2018-05-17T00:16:54.853Z,0
2018-05-17T00:18:04.599Z,0
2018-05-17T00:19:14.610Z,0
2018-05-17T00:20:24.354Z,0
2018-05-17T00:21:34.093Z,0
2018-05-17T00:22:43.838Z,0
2018-05-17T00:23:53.849Z,0
2018-05-17T00:25:03.862Z,0
2018-05-17T00:26:13.614Z,0
2018-05-17T00:27:23.098Z,0
2018-05-17T00:28:33.119Z,0
2018-05-17T00:29:43.133Z,0
2018-05-17T00:30:53.154Z,0
2018-05-17T00:32:03.284Z,0
2018-05-17T00:33:13.295Z,0
2018-05-17T00:34:23.307Z,0
2018-05-17T00:35:33.316Z,0
2018-05-17T00:36:42.524Z,0
2018-05-17T00:37:52.541Z,0
2018-05-17T00:39:02.556Z,0
2018-05-17T00:40:12.298Z,0
2018-05-17T00:41:22.037Z,0
2018-05-17T00:42:32.071Z,0
2018-05-17T00:43:41.541Z,0
2018-05-17T00:44:51.287Z,0
2018-05-17T00:46:01.298Z,0
2018-05-17T00:47:11.041Z,0
2018-05-17T00:48:20.827Z,0
2018-05-17T00:49:30.582Z,0
2018-05-17T00:50:40.588Z,0
2018-05-17T00:51:50.656Z,0
2018-05-17T00:53:00.394Z,0
2018-05-17T00:54:10.138Z,0
2018-05-17T00:55:20.155Z,0
2018-05-17T00:56:30.165Z,0
2018-05-17T00:57:39.913Z,0
2018-05-17T00:58:49.387Z,0
2018-05-17T00:59:59.393Z,0
2018-05-17T01:01:09.252Z,0
2018-05-17T01:02:19.261Z,0
2018-05-17T01:03:29.282Z,0
2018-05-17T01:04:39.286Z,0
2018-05-17T01:05:49.294Z,0
2018-05-17T01:06:59.316Z,0
2018-05-17T01:08:09.063Z,0
2018-05-17T01:09:18.887Z,0
2018-05-17T01:10:28.368Z,0
2018-05-17T01:11:37.837Z,0
2018-05-17T01:12:47.578Z,0
2018-05-17T01:13:57.045Z,0
2018-05-17T01:15:06.791Z,0
2018-05-17T01:16:16.530Z,0
2018-05-17T01:17:26.541Z,0
2018-05-17T01:18:36.289Z,0
2018-05-17T01:19:46.301Z,0
2018-05-17T01:20:56.316Z,0
2018-05-17T01:22:05.787Z,0
2018-05-17T01:23:15.793Z,0
2018-05-17T01:24:25.536Z,0
2018-05-17T01:25:35.284Z,0
2018-05-17T01:26:45.296Z,0
2018-05-17T01:27:55.312Z,0
2018-05-17T01:29:05.340Z,0
2018-05-17T01:30:15.349Z,0
2018-05-17T01:31:25.353Z,0
2018-05-17T01:32:35.362Z,0
2018-05-17T01:33:45.103Z,0
2018-05-17T01:34:55.208Z,0
2018-05-17T01:36:04.367Z,0
2018-05-17T01:37:13.856Z,0
2018-05-17T01:38:23.808Z,0
2018-05-17T01:39:33.545Z,0
2018-05-17T01:40:43.288Z,0
2018-05-17T01:41:53.293Z,0
2018-05-17T01:43:03.303Z,0
2018-05-17T01:44:13.319Z,0
2018-05-17T01:45:23.327Z,0
2018-05-17T01:46:33.338Z,0
2018-05-17T01:47:43.418Z,0
2018-05-17T01:48:53.171Z,0
2018-05-17T01:50:02.670Z,0
2018-05-17T01:51:12.412Z,0
2018-05-17T01:52:22.243Z,0
2018-05-17T01:53:32.250Z,0
2018-05-17T01:54:41.726Z,0
2018-05-17T01:55:51.737Z,0
2018-05-17T01:57:01.741Z,0
2018-05-17T01:58:11.492Z,0
2018-05-17T01:59:21.562Z,0
2018-05-17T02:00:31.303Z,0
2018-05-17T02:01:40.786Z,0
2018-05-17T02:02:50.540Z,0
2018-05-17T02:04:00.286Z,0
2018-05-17T02:05:10.391Z,0
2018-05-17T02:06:19.885Z,0
2018-05-17T02:07:29.086Z,0
2018-05-17T02:08:38.827Z,0
2018-05-17T02:09:48.570Z,0
2018-05-17T02:10:58.659Z,0
2018-05-17T02:12:08.144Z,0
2018-05-17T02:13:17.887Z,0
2018-05-17T02:14:27.361Z,0
2018-05-17T02:15:37.108Z,0
2018-05-17T02:16:46.853Z,0
2018-05-17T02:17:56.599Z,0
2018-05-17T02:19:06.678Z,0
2018-05-17T02:20:16.704Z,0
2018-05-17T02:21:26.711Z,0
2018-05-17T02:22:36.552Z,0
2018-05-17T02:23:46.022Z,0
2018-05-17T02:24:55.774Z,0
2018-05-17T02:26:05.791Z,0
2018-05-17T02:27:14.998Z,0
2018-05-17T02:28:25.010Z,0
2018-05-17T02:29:35.109Z,0
2018-05-17T02:30:45.140Z,0
2018-05-17T02:31:54.899Z,0
2018-05-17T02:33:04.673Z,0
2018-05-17T02:34:14.707Z,0
2018-05-17T02:35:24.188Z,5
2018-05-17T02:36:33.933Z,5
2018-05-17T02:37:43.948Z,5
2018-05-17T02:38:53.974Z,5
2018-05-17T02:40:04.006Z,5
2018-05-17T02:41:14.021Z,5
2018-05-17T02:42:24.148Z,5
2018-05-17T02:43:34.164Z,5
2018-05-17T02:44:44.176Z,5
2018-05-17T02:45:54.205Z,5
2018-05-17T02:47:03.968Z,5
2018-05-17T02:48:13.995Z,10
2018-05-17T02:49:24.158Z,10
2018-05-17T02:50:33.904Z,10
2018-05-17T02:51:44.023Z,10
2018-05-17T02:52:54.045Z,10
2018-05-17T02:54:03.820Z,10
2018-05-17T02:55:13.301Z,10
2018-05-17T02:56:23.334Z,10
2018-05-17T02:57:33.085Z,10
2018-05-17T02:58:42.836Z,10
2018-05-17T02:59:52.587Z,10
2018-05-17T03:03:34.944Z,15
2018-05-17T03:04:44.706Z,15
2018-05-17T03:05:53.922Z,15
2018-05-17T03:07:03.943Z,15
2018-05-17T03:08:13.951Z,15
2018-05-17T03:09:23.694Z,15
2018-05-17T03:10:33.447Z,15
2018-05-17T03:11:43.468Z,15
2018-05-17T03:12:52.947Z,15
2018-05-17T03:14:02.957Z,15
2018-05-17T03:15:12.715Z,15
2018-05-17T03:16:22.727Z,20
2018-05-17T03:17:32.732Z,20
2018-05-17T03:18:42.474Z,20
2018-05-17T03:19:51.948Z,20
2018-05-17T03:21:01.691Z,20
2018-05-17T03:22:11.164Z,20
2018-05-17T03:23:21.176Z,25
2018-05-17T03:24:30.918Z,25
2018-05-17T03:25:40.391Z,25
2018-05-17T03:26:50.164Z,25
2018-05-17T03:27:59.638Z,25
2018-05-17T03:29:09.119Z,25
2018-05-17T03:30:18.870Z,25
2018-05-17T03:31:28.897Z,30
2018-05-17T03:32:39.004Z,30
2018-05-17T03:33:49.019Z,30
2018-05-17T03:34:58.760Z,30
2018-05-17T03:36:08.243Z,30
2018-05-17T03:37:18.261Z,30
2018-05-17T03:38:28.284Z,30
2018-05-17T03:39:38.301Z,30
2018-05-17T03:40:48.307Z,30
2018-05-17T03:41:58.327Z,35
2018-05-17T03:43:07.806Z,35
2018-05-17T03:44:17.550Z,35
2018-05-17T03:45:27.298Z,35
2018-05-17T03:46:37.325Z,35
2018-05-17T03:47:46.531Z,35
2018-05-17T03:48:56.540Z,40
2018-05-17T03:50:06.018Z,40
2018-05-17T03:51:15.501Z,40
2018-05-17T03:52:25.247Z,40
2018-05-17T03:53:35.273Z,40
2018-05-17T03:54:45.287Z,40
2018-05-17T03:55:55.033Z,40
2018-05-17T03:57:04.238Z,40
2018-05-17T03:58:14.251Z,40
2018-05-17T03:59:24.265Z,40
2018-05-17T04:00:34.273Z,40
2018-05-17T04:01:44.279Z,35
2018-05-17T04:02:54.022Z,35
2018-05-17T04:04:04.032Z,35
2018-05-17T04:05:14.427Z,35
2018-05-17T04:06:24.440Z,35
2018-05-17T04:07:34.230Z,35
2018-05-17T04:08:44.533Z,35
2018-05-17T04:09:54.008Z,30
2018-05-17T04:11:03.749Z,30
2018-05-17T04:12:13.503Z,30
2018-05-17T04:13:23.515Z,30
2018-05-17T04:14:33.257Z,30
2018-05-17T04:15:42.999Z,30
2018-05-17T04:16:53.006Z,35
2018-05-17T04:18:02.484Z,35
2018-05-17T04:19:12.488Z,35
2018-05-17T04:20:22.229Z,35
2018-05-17T04:21:31.706Z,35
2018-05-17T04:22:41.440Z,35
2018-05-17T04:23:51.186Z,35
2018-05-17T04:25:00.661Z,35
2018-05-17T04:26:10.133Z,35
2018-05-17T04:27:20.138Z,40
2018-05-17T04:28:29.606Z,40
2018-05-17T04:29:39.346Z,40
2018-05-17T04:30:48.820Z,45
2018-05-17T04:31:58.561Z,45
2018-05-17T04:33:08.577Z,45
2018-05-17T04:34:18.074Z,45
2018-05-17T04:35:27.813Z,45
2018-05-17T04:36:37.557Z,50
2018-05-17T04:37:47.297Z,55
2018-05-17T04:38:57.318Z,55
2018-05-17T04:40:06.795Z,55
2018-05-17T04:41:16.808Z,60
2018-05-17T04:42:26.832Z,65
2018-05-17T04:43:36.308Z,70
2018-05-17T04:44:46.318Z,75
2018-05-17T04:45:56.328Z,75
2018-05-17T04:47:06.573Z,75
2018-05-17T04:48:16.409Z,75
2018-05-17T04:49:26.417Z,70
2018-05-17T04:50:35.895Z,70
2018-05-17T04:51:45.363Z,75
2018-05-17T04:52:55.368Z,75
2018-05-17T04:54:05.383Z,80
2018-05-17T04:55:15.404Z,85
2018-05-17T04:56:25.411Z,90
2018-05-17T04:57:35.426Z,90
2018-05-17T04:58:45.456Z,90
2018-05-17T04:59:55.468Z,90
2018-05-17T05:01:04.939Z,90
2018-05-17T05:02:14.947Z,90
2018-05-17T05:03:24.954Z,90
2018-05-17T05:04:34.958Z,85
2018-05-17T05:05:44.967Z,80
2018-05-17T05:06:54.705Z,75
2018-05-17T05:08:04.716Z,75
2018-05-17T05:09:14.458Z,70
2018-05-17T05:10:24.472Z,70
2018-05-17T05:11:34.215Z,70
2018-05-17T05:12:44.226Z,70
2018-05-17T05:13:54.036Z,70
2018-05-17T05:15:03.788Z,70
2018-05-17T05:16:12.727Z,70
2018-05-17T05:17:22.739Z,65
2018-05-17T05:18:32.753Z,65
2018-05-17T05:19:42.758Z,60
2018-05-17T05:20:52.780Z,60
2018-05-17T05:22:01.718Z,60
2018-05-17T05:23:11.467Z,60
2018-05-17T05:24:21.205Z,60
2018-05-17T05:25:31.318Z,60
2018-05-17T05:26:41.327Z,60
2018-05-17T05:27:50.806Z,65
2018-05-17T05:29:00.642Z,65
2018-05-17T05:30:09.858Z,65
2018-05-17T05:31:19.595Z,65
2018-05-17T05:32:29.600Z,70
2018-05-17T05:33:39.342Z,85
2018-05-17T05:34:49.345Z,100
2018-05-17T05:35:59.346Z,115
2018-05-17T05:37:09.357Z,125
2018-05-17T05:38:19.364Z,125
2018-05-17T05:39:29.377Z,115
2018-05-17T05:40:39.379Z,110
2018-05-17T05:41:49.129Z,110
2018-05-17T05:42:58.873Z,115
2018-05-17T05:44:08.349Z,120
2018-05-17T05:45:18.101Z,125
2018-05-17T05:46:28.115Z,130
2018-05-17T05:47:38.123Z,125
2018-05-17T05:48:48.133Z,125
2018-05-17T05:49:57.604Z,120
2018-05-17T05:51:07.368Z,120
2018-05-17T05:52:17.374Z,130
2018-05-17T05:53:27.115Z,135
2018-05-17T05:54:37.212Z,140
2018-05-17T05:55:47.224Z,140
2018-05-17T05:56:56.698Z,140
2018-05-17T05:58:06.440Z,140
2018-05-17T05:59:16.463Z,145
2018-05-17T06:00:26.300Z,155
2018-05-17T06:01:36.317Z,160
2018-05-17T06:02:46.326Z,160
2018-05-17T06:03:56.330Z,160
2018-05-17T06:05:06.084Z,160
2018-05-17T06:06:16.102Z,165
2018-05-17T06:07:25.578Z,165
2018-05-17T06:08:35.482Z,165
2018-05-17T06:09:45.272Z,170
2018-05-17T06:10:54.750Z,175
2018-05-17T06:12:04.500Z,180
2018-05-17T06:13:14.513Z,175
2018-05-17T06:14:24.250Z,170
2018-05-17T06:15:34.265Z,170
2018-05-17T06:16:44.275Z,165
2018-05-17T06:17:54.018Z,160
2018-05-17T06:19:03.766Z,150
2018-05-17T06:20:13.775Z,150
2018-05-17T06:21:23.788Z,155
2018-05-17T06:22:33.805Z,155
2018-05-17T06:23:43.313Z,160
2018-05-17T06:24:53.331Z,160
2018-05-17T06:26:03.070Z,155
2018-05-17T06:27:12.821Z,150
2018-05-17T06:28:22.893Z,140
2018-05-17T06:29:32.903Z,140
2018-05-17T06:30:42.643Z,135
2018-05-17T06:31:52.663Z,135
2018-05-17T06:33:02.673Z,135
2018-05-17T06:34:12.431Z,135
2018-05-17T06:35:22.438Z,140
2018-05-17T06:36:32.444Z,145
2018-05-17T06:37:42.320Z,145
2018-05-17T06:38:52.455Z,150
2018-05-17T06:40:02.461Z,150
2018-05-17T06:41:12.471Z,160
2018-05-17T06:42:21.678Z,165
2018-05-17T06:43:31.688Z,165
2018-05-17T06:44:40.628Z,165
2018-05-17T06:45:50.638Z,165
2018-05-17T06:47:00.384Z,165
2018-05-17T06:48:10.128Z,165
2018-05-17T06:49:19.599Z,165
2018-05-17T06:50:29.603Z,175
2018-05-17T06:51:39.348Z,185
2018-05-17T06:52:49.097Z,200
2018-05-17T06:53:59.106Z,215
2018-05-17T06:55:08.864Z,225
2018-05-17T06:56:18.873Z,245
2018-05-17T06:57:28.881Z,260
2018-05-17T06:58:38.890Z,265
2018-05-17T06:59:48.367Z,275
2018-05-17T07:00:58.649Z,275
2018-05-17T07:02:08.747Z,280
2018-05-17T07:03:18.490Z,275
2018-05-17T07:04:28.015Z,270
2018-05-17T07:05:37.760Z,265
2018-05-17T07:06:47.509Z,265
2018-05-17T07:07:57.522Z,260
2018-05-17T07:09:07.266Z,260
2018-05-17T07:10:17.284Z,260
2018-05-17T07:11:27.310Z,270
2018-05-17T07:12:37.328Z,280
2018-05-17T07:13:47.075Z,290
2018-05-17T07:14:57.094Z,285
2018-05-17T07:16:07.116Z,275
2018-05-17T07:17:17.126Z,280
2018-05-17T07:18:28.296Z,290
2018-05-17T07:19:37.827Z,300
2018-05-17T07:20:47.848Z,320
2018-05-17T07:21:57.061Z,335
2018-05-17T07:23:06.808Z,345
2018-05-17T07:24:17.150Z,370
2018-05-17T07:25:26.893Z,400
2018-05-17T07:26:36.899Z,430
2018-05-17T07:27:46.374Z,445
2018-05-17T07:28:55.854Z,450
2018-05-17T07:30:05.063Z,445
2018-05-17T07:31:15.160Z,440
2018-05-17T07:32:25.171Z,445
2018-05-17T07:33:34.651Z,455
2018-05-17T07:34:44.401Z,460
2018-05-17T07:35:54.157Z,460
2018-05-17T07:37:03.897Z,450
2018-05-17T07:38:13.657Z,445
2018-05-17T07:39:24.029Z,445
2018-05-17T07:40:33.780Z,460
2018-05-17T07:41:43.265Z,470
2018-05-17T07:42:53.275Z,475
2018-05-17T07:44:03.018Z,475
2018-05-17T07:45:13.040Z,480
2018-05-17T07:46:23.055Z,485
2018-05-17T07:47:32.803Z,485
2018-05-17T07:48:42.811Z,490
2018-05-17T07:49:52.564Z,490
2018-05-17T07:51:02.050Z,490
2018-05-17T07:52:12.343Z,480
2018-05-17T07:53:22.110Z,465
2018-05-17T07:54:31.856Z,455
2018-05-17T07:55:42.247Z,455
2018-05-17T07:56:51.851Z,455
2018-05-17T07:58:01.872Z,460
2018-05-17T07:59:11.628Z,460
2018-05-17T08:00:21.649Z,460
2018-05-17T08:01:31.666Z,455
2018-05-17T08:02:41.407Z,460
2018-05-17T08:03:51.422Z,460
2018-05-17T08:05:01.166Z,465
2018-05-17T08:06:10.375Z,465
2018-05-17T08:07:19.850Z,470
2018-05-17T08:08:29.595Z,480
2018-05-17T08:09:39.759Z,485
2018-05-17T08:10:49.768Z,490
2018-05-17T08:11:59.562Z,500
2018-05-17T08:13:09.313Z,495
2018-05-17T08:14:19.323Z,490
2018-05-17T08:15:29.089Z,485
2018-05-17T08:16:38.836Z,485
2018-05-17T08:17:48.576Z,465
2018-05-17T08:18:58.323Z,460
2018-05-17T08:20:07.538Z,465
2018-05-17T08:21:17.283Z,475
2018-05-17T08:22:27.306Z,485
2018-05-17T08:23:37.317Z,505
2018-05-17T08:24:47.066Z,525
2018-05-17T08:25:57.077Z,535
2018-05-17T08:27:06.832Z,535
2018-05-17T08:28:16.578Z,545
2018-05-17T08:29:26.322Z,555
2018-05-17T08:30:36.082Z,565
2018-05-17T08:31:46.103Z,580
2018-05-17T08:32:55.586Z,575
2018-05-17T08:34:05.594Z,575
2018-05-17T08:35:15.341Z,575
2018-05-17T08:36:26.163Z,575
2018-05-17T08:37:36.308Z,575
2018-05-17T08:38:45.797Z,580
2018-05-17T08:39:55.546Z,570
2018-05-17T08:41:05.296Z,565
2018-05-17T08:42:15.319Z,575
2018-05-17T08:43:25.349Z,570
2018-05-17T08:44:34.826Z,570
2018-05-17T08:45:45.135Z,565
2018-05-17T08:46:54.976Z,555
2018-05-17T08:48:04.999Z,560
2018-05-17T08:49:14.746Z,550
2018-05-17T08:50:24.228Z,540
2018-05-17T08:51:33.976Z,530
2018-05-17T08:52:43.825Z,525
2018-05-17T08:53:53.304Z,515
2018-05-17T08:55:03.056Z,505
2018-05-17T08:56:12.549Z,485
2018-05-17T08:57:22.297Z,475
2018-05-17T08:58:32.041Z,470
2018-05-17T08:59:41.738Z,420
2018-05-17T09:00:51.494Z,390
2018-05-17T09:02:01.248Z,375
2018-05-17T09:03:10.997Z,390
2018-05-17T09:04:21.111Z,355
2018-05-17T09:05:31.128Z,330
2018-05-17T09:06:40.883Z,320
2018-05-17T09:07:50.906Z,300
2018-05-17T09:09:00.416Z,300
2018-05-17T09:10:09.896Z,275
2018-05-17T09:11:19.376Z,255
2018-05-17T09:12:29.123Z,250
2018-05-17T09:13:39.658Z,260
2018-05-17T09:14:48.984Z,270
2018-05-17T09:15:58.790Z,265
2018-05-17T09:17:08.537Z,265
2018-05-17T09:18:18.555Z,270
2018-05-17T09:19:28.306Z,270
2018-05-17T09:20:37.677Z,270
2018-05-17T09:21:47.693Z,265
2018-05-17T09:22:57.709Z,265
2018-05-17T09:24:07.463Z,265
2018-05-17T09:25:17.471Z,265
2018-05-17T09:26:26.951Z,265
2018-05-17T09:27:36.755Z,265
2018-05-17T09:28:46.777Z,265
2018-05-17T09:29:56.255Z,265
2018-05-17T09:31:06.285Z,265
2018-05-17T09:32:16.294Z,270
2018-05-17T09:33:25.860Z,265
2018-05-17T09:34:35.876Z,270
2018-05-17T09:35:46.233Z,275
2018-05-17T09:36:55.856Z,270
2018-05-17T09:38:05.884Z,270
2018-05-17T09:39:15.653Z,270
2018-05-17T09:40:25.408Z,270
2018-05-17T09:41:35.630Z,270
2018-05-17T09:42:44.843Z,270
2018-05-17T09:43:54.929Z,270
2018-05-17T09:45:04.408Z,270
2018-05-17T09:46:14.506Z,270
2018-05-17T09:47:24.515Z,270
2018-05-17T09:48:34.524Z,275
2018-05-17T09:49:44.539Z,275
2018-05-17T09:50:54.280Z,275
2018-05-17T09:52:04.306Z,275
2018-05-17T09:53:14.323Z,275
2018-05-17T09:54:24.073Z,275
2018-05-17T09:55:34.164Z,275
2018-05-17T09:56:44.187Z,275
2018-05-17T09:57:53.938Z,275
2018-05-17T09:59:03.948Z,275
2018-05-17T10:00:13.964Z,280
2018-05-17T10:01:23.972Z,280
2018-05-17T10:02:33.990Z,280
2018-05-17T10:03:44.017Z,280
2018-05-17T10:04:53.759Z,280
2018-05-17T10:06:03.510Z,280
2018-05-17T10:07:12.725Z,280
2018-05-17T10:08:22.783Z,280
2018-05-17T10:09:32.796Z,285
2018-05-17T10:10:42.816Z,285
2018-05-17T10:11:52.832Z,285
2018-05-17T10:13:02.864Z,290
2018-05-17T10:14:12.609Z,295
2018-05-17T10:15:22.361Z,290
2018-05-17T10:16:32.115Z,290
2018-05-17T10:17:42.140Z,290
2018-05-17T10:18:52.149Z,295
2018-05-17T10:20:01.895Z,295
2018-05-17T10:21:11.374Z,295
2018-05-17T10:22:21.126Z,295
2018-05-17T10:23:30.872Z,300
2018-05-17T10:24:40.888Z,300
2018-05-17T10:25:50.365Z,300
2018-05-17T10:27:00.375Z,310
2018-05-17T10:28:09.853Z,305
2018-05-17T10:29:19.072Z,305
2018-05-17T10:30:28.824Z,305
2018-05-17T10:31:38.572Z,305
2018-05-17T10:32:48.587Z,305
2018-05-17T10:33:58.339Z,310
2018-05-17T10:35:08.083Z,310
2018-05-17T10:36:18.129Z,310
2018-05-17T10:37:28.144Z,310
2018-05-17T10:38:37.623Z,310
2018-05-17T10:39:47.387Z,310
2018-05-17T10:40:57.397Z,310
2018-05-17T10:42:07.313Z,315
2018-05-17T10:43:17.447Z,315
2018-05-17T10:44:26.923Z,315
2018-05-17T10:45:36.989Z,315
2018-05-17T10:46:46.551Z,320
2018-05-17T10:47:56.561Z,320
2018-05-17T10:49:06.794Z,320
2018-05-17T10:50:16.809Z,320
2018-05-17T10:51:26.821Z,325
2018-05-17T10:52:36.832Z,325
2018-05-17T10:53:46.320Z,325
2018-05-17T10:54:56.071Z,325
2018-05-17T10:56:06.086Z,325
2018-05-17T10:57:15.831Z,325
2018-05-17T10:58:25.579Z,325
2018-05-17T10:59:35.602Z,330
2018-05-17T11:00:45.345Z,330
2018-05-17T11:01:55.377Z,330
2018-05-17T11:03:05.408Z,330
2018-05-17T11:04:15.427Z,335
2018-05-17T11:05:25.439Z,335
2018-05-17T11:06:35.456Z,335
2018-05-17T11:07:45.478Z,340
2018-05-17T11:08:55.221Z,340
2018-05-17T11:10:05.231Z,340
2018-05-17T11:11:14.985Z,340
2018-05-17T11:12:25.081Z,345
2018-05-17T11:13:35.097Z,345
2018-05-17T11:14:44.841Z,345
2018-05-17T11:15:54.681Z,350
2018-05-17T11:17:04.424Z,350
2018-05-17T11:18:14.173Z,350
2018-05-17T11:19:24.200Z,355
2018-05-17T11:20:33.964Z,355
2018-05-17T11:21:43.716Z,360
2018-05-17T11:22:53.468Z,360
2018-05-17T11:24:03.488Z,365
2018-05-17T11:25:12.967Z,385
2018-05-17T11:26:22.452Z,665
2018-05-17T11:27:31.928Z,1745
2018-05-17T11:28:41.405Z,2180
2018-05-17T11:29:51.427Z,2420
2018-05-17T11:31:01.508Z,2515
2018-05-17T11:32:11.541Z,2345
2018-05-17T11:33:20.941Z,2310
2018-05-17T11:34:30.968Z,2640
2018-05-17T11:35:40.454Z,2750
2018-05-17T11:36:50.477Z,3045
2018-05-17T11:38:00.492Z,3015
2018-05-17T11:39:10.514Z,2755
2018-05-17T11:40:20.008Z,2650
2018-05-17T11:41:30.029Z,2825
2018-05-17T11:42:40.058Z,2870
2018-05-17T11:43:50.116Z,2795
2018-05-17T11:44:59.867Z,2735
2018-05-17T11:46:09.891Z,2885
2018-05-17T11:47:19.649Z,2675
2018-05-17T11:48:30.174Z,2560
2018-05-17T11:49:40.040Z,2725
2018-05-17T11:50:49.563Z,2740
2018-05-17T11:51:59.058Z,2765
2018-05-17T11:53:08.815Z,2910
2018-05-17T11:54:18.042Z,2580
2018-05-17T11:55:28.071Z,2435
2018-05-17T11:56:38.105Z,2490
2018-05-17T11:57:48.128Z,2575
2018-05-17T11:58:58.024Z,2550
2018-05-17T12:00:07.784Z,2410
2018-05-17T12:01:17.816Z,2370
2018-05-17T12:02:27.602Z,2380
2018-05-17T12:03:37.095Z,2575
2018-05-17T12:04:46.964Z,2790
2018-05-17T12:05:56.990Z,2660
2018-05-17T12:07:06.485Z,2460
2018-05-17T12:08:16.253Z,2685
2018-05-17T12:09:26.019Z,2740
2018-05-17T12:10:36.096Z,2795
2018-05-17T12:11:46.127Z,2805
2018-05-17T12:12:56.160Z,2850
2018-05-17T12:14:05.930Z,2755
2018-05-17T12:15:15.706Z,2740
2018-05-17T12:16:25.487Z,2695
2018-05-17T12:17:35.522Z,2560
2018-05-17T12:18:45.024Z,2500
2018-05-17T12:19:55.153Z,2660
2018-05-17T12:21:04.385Z,2750
2018-05-17T12:22:14.149Z,2585
2018-05-17T12:23:23.926Z,2605
2018-05-17T12:24:33.690Z,2720
2018-05-17T12:25:43.455Z,2630
2018-05-17T12:26:53.229Z,2610
2018-05-17T12:28:03.273Z,2435
2018-05-17T12:29:13.043Z,2555
2018-05-17T12:30:22.820Z,2510
2018-05-17T12:31:32.864Z,2680
2018-05-17T12:32:42.726Z,2675
2018-05-17T12:33:52.761Z,2585
2018-05-17T12:35:02.002Z,2670
2018-05-17T12:36:12.045Z,2645
2018-05-17T12:37:22.242Z,2645
2018-05-17T12:38:32.344Z,2750
2018-05-17T12:39:42.377Z,2590
2018-05-17T12:40:52.413Z,2455
2018-05-17T12:42:02.459Z,2260
2018-05-17T12:43:11.967Z,2280
2018-05-17T12:44:21.999Z,2335
2018-05-17T12:45:32.035Z,2225
2018-05-17T12:46:42.067Z,2210
2018-05-17T12:47:51.833Z,2215
2018-05-17T12:49:01.866Z,2175
2018-05-17T12:50:11.733Z,2275
2018-05-17T12:51:21.771Z,2145
2018-05-17T12:52:31.273Z,2035
2018-05-17T12:53:41.316Z,2030
2018-05-17T12:54:51.081Z,2075
2018-05-17T12:56:00.575Z,2050
2018-05-17T12:57:09.804Z,2035
2018-05-17T12:58:19.839Z,2085
2018-05-17T12:59:29.877Z,2515
2018-05-17T13:00:39.918Z,2600
2018-05-17T13:01:49.983Z,2480
2018-05-17T13:03:00.030Z,3180
2018-05-17T13:04:09.531Z,3290
2018-05-17T13:05:19.030Z,2875
2018-05-17T13:06:29.068Z,3040
2018-05-17T13:07:39.097Z,3405
2018-05-17T13:08:48.596Z,3305
2018-05-17T13:09:58.374Z,2955
2018-05-17T13:11:08.418Z,2960
2018-05-17T13:12:18.545Z,3240
2018-05-17T13:13:28.044Z,3410
2018-05-17T13:14:37.810Z,3490
2018-05-17T13:15:47.848Z,3445
2018-05-17T13:16:57.345Z,3335
2018-05-17T13:18:07.108Z,3215
2018-05-17T13:19:17.149Z,3350
2018-05-17T13:20:27.187Z,3485
2018-05-17T13:21:36.956Z,3650
2018-05-17T13:22:46.988Z,3735
2018-05-17T13:23:57.107Z,3710
2018-05-17T13:25:06.608Z,3725
2018-05-17T13:26:16.648Z,3545
2018-05-17T13:27:26.694Z,3290
2018-05-17T13:28:36.468Z,3510
2018-05-17T13:29:46.500Z,3450
2018-05-17T13:30:56.621Z,3375
2018-05-17T13:32:06.120Z,3330
2018-05-17T13:33:16.155Z,3290
2018-05-17T13:34:26.198Z,3280
2018-05-17T13:35:35.973Z,3320
2018-05-17T13:36:46.015Z,3435
2018-05-17T13:37:55.597Z,3570
2018-05-17T13:39:05.638Z,3500
2018-05-17T13:40:15.400Z,3475
2018-05-17T13:41:24.912Z,3550
2018-05-17T13:42:34.413Z,3405
2018-05-17T13:43:44.444Z,3545
2018-05-17T13:44:54.586Z,3520
2018-05-17T13:46:04.623Z,3365
2018-05-17T13:47:14.447Z,3515
2018-05-17T13:48:24.484Z,3325
2018-05-17T13:49:33.993Z,3385
2018-05-17T13:50:43.771Z,3465
2018-05-17T13:51:53.544Z,3355
2018-05-17T13:53:03.313Z,3405
2018-05-17T13:54:12.811Z,3460
2018-05-17T13:55:22.582Z,3485
2018-05-17T13:56:32.618Z,3460
2018-05-17T13:57:42.657Z,3490
2018-05-17T13:58:52.457Z,3420
2018-05-17T14:00:02.223Z,3385
2018-05-17T14:01:11.779Z,3260
2018-05-17T14:02:22.426Z,3320
2018-05-17T14:03:32.563Z,3490
2018-05-17T14:04:42.613Z,3370
2018-05-17T14:05:52.729Z,3170
2018-05-17T14:07:02.507Z,2990
2018-05-17T14:08:11.740Z,3095
2018-05-17T14:09:21.781Z,3285
2018-05-17T14:10:31.558Z,3400
2018-05-17T14:11:41.323Z,3345
2018-05-17T14:12:51.715Z,3170
2018-05-17T14:14:01.427Z,3020
2018-05-17T14:15:11.622Z,3190
2018-05-17T14:16:21.736Z,3260
2018-05-17T14:17:31.508Z,3225
2018-05-17T14:18:41.279Z,3080
2018-05-17T14:19:51.315Z,3225
2018-05-17T14:21:01.084Z,3130
2018-05-17T14:22:10.319Z,3080
2018-05-17T14:23:20.800Z,3175
2018-05-17T14:24:30.616Z,3145
2018-05-17T14:25:40.653Z,3245
2018-05-17T14:26:50.692Z,3105
2018-05-17T14:28:00.727Z,3165
2018-05-17T14:29:10.505Z,3205
2018-05-17T14:30:20.286Z,3235
2018-05-17T14:31:30.321Z,2935
2018-05-17T14:32:40.087Z,2930
2018-05-17T14:33:49.592Z,3085
2018-05-17T14:34:59.387Z,3035
2018-05-17T14:36:08.621Z,3040
2018-05-17T14:37:18.655Z,3105
2018-05-17T14:38:28.699Z,2845
2018-05-17T14:39:38.473Z,2915
2018-05-17T14:40:48.601Z,3035
2018-05-17T14:41:58.473Z,2865
2018-05-17T14:43:08.239Z,2910
2018-05-17T14:44:18.271Z,3080
2018-05-17T14:45:28.323Z,3025
2018-05-17T14:46:38.366Z,2910
2018-05-17T14:47:48.409Z,2895
2018-05-17T14:48:57.641Z,2920
2018-05-17T14:50:07.683Z,3015
2018-05-17T14:51:17.199Z,2840
2018-05-17T14:52:27.234Z,2665
2018-05-17T14:53:37.344Z,2750
2018-05-17T14:54:47.115Z,2840
2018-05-17T14:55:57.184Z,2905
2018-05-17T14:57:06.970Z,2870
2018-05-17T14:58:16.466Z,2825
2018-05-17T14:59:26.236Z,2880
2018-05-17T15:00:36.286Z,2945
2018-05-17T15:01:46.415Z,2900
2018-05-17T15:02:56.454Z,2910
2018-05-17T15:04:06.219Z,2760
2018-05-17T15:05:15.719Z,2745
2018-05-17T15:06:25.498Z,2775
2018-05-17T15:07:35.545Z,2805
2018-05-17T15:08:46.658Z,2820
2018-05-17T15:09:56.718Z,2890
2018-05-17T15:11:09.035Z,2810
2018-05-17T15:12:18.809Z,2830
2018-05-17T15:13:28.858Z,2875
2018-05-17T15:14:38.625Z,2795
2018-05-17T15:15:48.669Z,2750
2018-05-17T15:16:58.435Z,2675
2018-05-17T15:18:08.206Z,2745
2018-05-17T15:19:18.633Z,2725
2018-05-17T15:20:28.068Z,2715
2018-05-17T15:21:37.902Z,2670
2018-05-17T15:22:47.938Z,2745
2018-05-17T15:23:57.971Z,2750
2018-05-17T15:25:07.793Z,2655
2018-05-17T15:26:17.830Z,2670
2018-05-17T15:27:28.478Z,2660
2018-05-17T15:28:38.358Z,2665
2018-05-17T15:29:48.979Z,2740
2018-05-17T15:30:58.867Z,2805
2018-05-17T15:32:08.908Z,2700
2018-05-17T15:33:18.942Z,2595
2018-05-17T15:34:28.711Z,2700
2018-05-17T15:35:38.525Z,2690
2018-05-17T15:36:48.302Z,2640
2018-05-17T15:37:58.336Z,2600
2018-05-17T15:39:08.111Z,2600
2018-05-17T15:40:18.149Z,2595
2018-05-17T15:41:28.185Z,2555
2018-05-17T15:42:37.958Z,2590
2018-05-17T15:43:47.989Z,2560
2018-05-17T15:44:57.765Z,2450
2018-05-17T15:46:07.812Z,2040
2018-05-17T15:47:17.322Z,2090
2018-05-17T15:48:27.198Z,1900
2018-05-17T15:49:36.968Z,1620
2018-05-17T15:50:46.732Z,1170
2018-05-17T15:51:55.971Z,885
2018-05-17T15:53:05.741Z,745
2018-05-17T15:54:15.779Z,570
2018-05-17T15:55:25.306Z,530
2018-05-17T15:56:35.334Z,435
2018-05-17T15:57:44.897Z,495
2018-05-17T15:58:54.664Z,510
2018-05-17T16:00:04.694Z,570
2018-05-17T16:01:14.457Z,780
2018-05-17T16:02:24.220Z,595
2018-05-17T16:03:33.987Z,615
2018-05-17T16:04:44.017Z,985
2018-05-17T16:05:53.525Z,1380
2018-05-17T16:07:03.291Z,1095
2018-05-17T16:08:12.789Z,805
2018-05-17T16:09:22.282Z,595
2018-05-17T16:10:32.045Z,640
2018-05-17T16:11:42.073Z,630